Time;durP1;ratioP1;P1;durP2;ratioP2;P2;SDS_P1;SDS_P2;PMS_P1;PMS_P2;Temp;Humidity;BMP_temperature;BMP_pressure;BME280_temperature;BME280_humidity;BME280_pressure;Samples;Min_cycle;Max_cycle;Signal;HPM_P1;HPM_P2
2021/11/10 00:00:49;;;;;;;29.47;17.93;;;;;;;-140.05;100.00;61859.38;5009732;28;20449;-63
2021/11/10 00:03:17;;;;;;;28.03;18.23;;;;;;;-140.05;100.00;61859.38;5014496;28;20440;-62
2021/11/10 00:05:44;;;;;;;25.97;16.23;;;;;;;-140.05;100.00;61859.38;5008762;28;20441;-61
2021/11/10 00:08:13;;;;;;;21.43;11.80;;;;;;;-140.05;100.00;61859.38;5016051;28;20472;-62
2021/11/10 00:10:40;;;;;;;22.10;15.37;;;;;;;-140.05;100.00;61859.38;5022038;28;20980;-63
2021/11/10 00:13:19;;;;;;;22.93;15.37;;;;;;;-140.05;100.00;61859.38;5019372;28;20456;-62
2021/11/10 00:15:52;;;;;;;21.83;13.10;;;;;;;-140.05;100.00;61859.38;5014361;28;20440;-63
2021/11/10 00:18:20;;;;;;;17.37;10.73;;;;;;;-140.05;100.00;61859.38;5012604;28;21284;-63
2021/11/10 00:20:48;;;;;;;16.07;9.80;;;;;;;-140.05;100.00;61859.38;5012843;28;20440;-62
2021/11/10 00:23:16;;;;;;;17.10;11.43;;;;;;;-140.05;100.00;61859.38;5010451;28;20445;-63
2021/11/10 00:25:43;;;;;;;16.83;10.80;;;;;;;-140.05;100.00;61859.38;5014717;28;20557;-64
2021/11/10 00:28:10;;;;;;;15.03;10.40;;;;;;;-140.05;100.00;61859.38;5001199;28;20198;-64
2021/11/10 00:30:37;;;;;;;13.07;9.00;;;;;;;-140.05;100.00;61859.38;5024314;28;20927;-62
2021/11/10 00:33:04;;;;;;;12.43;7.77;;;;;;;-140.05;100.00;61859.38;5018892;28;20683;-63
2021/11/10 00:35:31;;;;;;;9.63;6.67;;;;;;;-140.05;100.00;61859.38;5021101;28;20483;-62
2021/11/10 00:37:58;;;;;;;10.40;6.37;;;;;;;-140.05;100.00;61859.38;5020408;28;20441;-62
2021/11/10 00:40:25;;;;;;;6.60;5.40;;;;;;;-140.05;100.00;61859.38;5019054;28;20539;-61
2021/11/10 00:42:52;;;;;;;7.23;5.07;;;;;;;-140.05;100.00;61859.38;5022018;28;20444;-61
2021/11/10 00:45:19;;;;;;;6.03;4.50;;;;;;;-140.05;100.00;61859.38;5019452;28;20578;-62
2021/11/10 00:47:46;;;;;;;7.07;4.70;;;;;;;-140.05;100.00;61859.38;5027585;28;20445;-63
2021/11/10 00:50:14;;;;;;;7.23;5.23;;;;;;;-140.05;100.00;61859.38;5020815;28;20550;-63
2021/11/10 00:52:41;;;;;;;6.03;4.40;;;;;;;-140.05;100.00;61859.38;5015611;28;20848;-63
2021/11/10 00:55:08;;;;;;;5.37;4.10;;;;;;;-140.05;100.00;61859.38;5010015;28;21154;-61
2021/11/10 00:57:35;;;;;;;8.00;5.37;;;;;;;-140.05;100.00;61859.38;5006886;28;20893;-61
2021/11/10 01:00:05;;;;;;;8.50;6.27;;;;;;;-140.05;100.00;61859.38;5022055;28;20506;-62
2021/11/10 01:02:33;;;;;;;9.53;6.60;;;;;;;-140.05;100.00;61859.38;5016471;28;20962;-63
2021/11/10 01:05:01;;;;;;;10.87;7.43;;;;;;;-140.05;100.00;61859.38;5015800;28;20983;-62
2021/11/10 01:07:29;;;;;;;14.93;8.93;;;;;;;-140.05;100.00;61859.38;5018920;28;20473;-62
2021/11/10 01:10:01;;;;;;;16.43;10.47;;;;;;;-140.05;100.00;61859.38;5020182;28;20439;-62
2021/11/10 01:12:29;;;;;;;13.93;9.97;;;;;;;-140.05;100.00;61859.38;5018259;28;20453;-62
2021/11/10 01:14:56;;;;;;;17.38;10.63;;;;;;;-140.05;100.00;61859.38;5019260;28;20483;-61
2021/11/10 01:17:24;;;;;;;18.13;10.80;;;;;;;-140.05;100.00;61859.38;5021124;28;20207;-61
2021/11/10 01:19:51;;;;;;;15.33;10.20;;;;;;;-140.05;100.00;61859.38;5030933;28;20489;-61
2021/11/10 01:22:18;;;;;;;15.30;10.47;;;;;;;-140.05;100.00;61859.38;5005707;28;20452;-63
2021/11/10 01:24:45;;;;;;;17.87;11.73;;;;;;;-140.05;100.00;61859.38;5008004;28;20536;-64
2021/11/10 01:27:14;;;;;;;18.50;11.33;;;;;;;-140.05;100.00;61859.38;5008635;28;20447;-62
2021/11/10 01:29:45;;;;;;;18.20;10.43;;;;;;;-140.05;100.00;61859.38;5006190;28;20480;-61
2021/11/10 01:32:12;;;;;;;16.23;10.10;;;;;;;-140.05;100.00;61859.38;5008655;28;21194;-61
2021/11/10 01:34:40;;;;;;;15.83;9.77;;;;;;;-140.05;100.00;61859.38;5013135;28;21186;-62
2021/11/10 01:37:12;;;;;;;14.53;9.30;;;;;;;-140.05;100.00;61859.38;5016400;28;20436;-61
2021/11/10 01:39:41;;;;;;;10.30;7.93;;;;;;;-140.05;100.00;61859.38;5022215;28;20472;-61
2021/11/10 01:42:12;;;;;;;14.73;9.35;;;;;;;-140.05;100.00;61859.38;5019047;28;20627;-62
2021/11/10 01:44:45;;;;;;;14.02;9.32;;;;;;;-140.05;100.00;61859.38;5019960;28;20263;-62
2021/11/10 01:47:13;;;;;;;13.43;9.02;;;;;;;-140.05;100.00;61859.38;5021590;28;20200;-62
2021/11/10 01:49:42;;;;;;;17.80;10.50;;;;;;;-140.05;100.00;61859.38;5014923;28;20197;-63
2021/11/10 01:52:12;;;;;;;18.37;10.97;;;;;;;-140.05;100.00;61859.38;5011146;28;21136;-62
2021/11/10 01:54:40;;;;;;;17.60;10.70;;;;;;;-140.05;100.00;61859.38;5008068;28;20484;-62
2021/11/10 01:57:12;;;;;;;16.70;10.38;;;;;;;-140.05;100.00;61859.38;5007047;28;20539;-61
2021/11/10 01:59:49;;;;;;;13.37;9.23;;;;;;;-140.05;100.00;61859.38;5009438;28;20679;-62
2021/11/10 02:02:26;;;;;;;14.48;9.38;;;;;;;-140.05;100.00;61859.38;5017750;28;20515;-63
2021/11/10 02:05:03;;;;;;;14.18;8.98;;;;;;;-140.05;100.00;61859.38;5021210;28;20204;-63
2021/11/10 02:07:34;;;;;;;11.82;8.30;;;;;;;-140.05;100.00;61859.38;5017965;28;20343;-62
2021/11/10 02:10:04;;;;;;;11.07;8.18;;;;;;;-140.05;100.00;61859.38;5029257;28;20206;-62
2021/11/10 02:12:31;;;;;;;10.47;7.80;;;;;;;-140.05;100.00;61859.38;5026694;28;20215;-63
2021/11/10 02:15:01;;;;;;;11.93;8.20;;;;;;;-140.05;100.00;61859.38;5024301;28;20495;-62
2021/11/10 02:17:29;;;;;;;11.00;7.85;;;;;;;-140.05;100.00;61859.38;5010837;28;20475;-64
2021/11/10 02:19:59;;;;;;;12.90;8.30;;;;;;;-140.05;100.00;61859.38;5019006;28;21166;-63
2021/11/10 02:22:33;;;;;;;14.07;8.23;;;;;;;-140.05;100.00;61859.38;4998177;28;21322;-62
2021/11/10 02:25:03;;;;;;;13.75;8.48;;;;;;;-140.05;100.00;61859.38;5011926;28;20526;-63
2021/11/10 02:27:35;;;;;;;14.70;9.07;;;;;;;-140.05;100.00;61859.38;5005929;28;20224;-62
2021/11/10 02:30:10;;;;;;;13.07;8.13;;;;;;;-140.05;100.00;61859.38;5008150;28;20189;-62
2021/11/10 02:32:38;;;;;;;12.65;8.10;;;;;;;-140.05;100.00;61859.38;5019346;28;20595;-62
2021/11/10 02:35:06;;;;;;;11.30;7.60;;;;;;;-140.05;100.00;61859.38;5017351;28;20236;-62
2021/11/10 02:37:34;;;;;;;9.35;6.97;;;;;;;-140.05;100.00;61859.38;5024244;28;20478;-62
2021/11/10 02:40:02;;;;;;;9.50;6.97;;;;;;;-140.05;100.00;61859.38;5020482;28;20196;-62
2021/11/10 02:42:34;;;;;;;10.63;7.13;;;;;;;-140.05;100.00;61859.38;5017488;28;20448;-62
2021/11/10 02:45:01;;;;;;;9.20;6.80;;;;;;;-140.05;100.00;61859.38;5021003;28;20194;-63
2021/11/10 02:47:28;;;;;;;9.43;6.80;;;;;;;-140.05;100.00;61859.38;5026956;28;20447;-61
2021/11/10 02:49:55;;;;;;;9.97;6.73;;;;;;;-140.05;100.00;61859.38;5030842;28;20520;-62
2021/11/10 02:52:23;;;;;;;9.30;6.27;;;;;;;-140.05;100.00;61859.38;5020223;28;20551;-61
2021/11/10 02:54:53;;;;;;;7.50;5.63;;;;;;;-140.05;100.00;61859.38;5020041;28;20482;-63
2021/11/10 02:57:21;;;;;;;8.35;6.22;;;;;;;-140.05;100.00;61859.38;5010629;28;20441;-62
2021/11/10 02:59:48;;;;;;;8.43;5.40;;;;;;;-140.05;100.00;61859.38;5014844;28;20201;-62
2021/11/10 03:02:26;;;;;;;8.45;5.43;;;;;;;-140.05;100.00;61859.38;5020688;28;21054;-62
2021/11/10 03:04:56;;;;;;;8.15;6.07;;;;;;;-140.05;100.00;61859.38;5029427;28;20220;-62
2021/11/10 03:07:27;;;;;;;11.38;6.30;;;;;;;-140.05;100.00;61859.38;5019542;28;20707;-62
2021/11/10 03:09:57;;;;;;;8.65;6.13;;;;;;;-140.05;100.00;61859.38;5022696;28;20197;-62
2021/11/10 03:12:26;;;;;;;9.98;6.38;;;;;;;-140.05;100.00;61859.38;5021064;28;20213;-62
2021/11/10 03:14:54;;;;;;;10.47;6.33;;;;;;;-140.05;100.00;61859.38;5021285;28;20248;-63
2021/11/10 03:17:21;;;;;;;9.17;6.30;;;;;;;-140.05;100.00;61859.38;5028654;28;20456;-62
2021/11/10 03:19:51;;;;;;;11.93;6.03;;;;;;;-140.05;100.00;61859.38;5014964;28;20551;-64
2021/11/10 03:22:20;;;;;;;8.33;6.33;;;;;;;-140.05;100.00;61859.38;5014245;28;20440;-63
2021/11/10 03:24:50;;;;;;;8.60;6.60;;;;;;;-140.05;100.00;61859.38;5009297;28;20461;-62
2021/11/10 03:27:23;;;;;;;9.18;6.57;;;;;;;-140.05;100.00;61859.38;5011553;28;20202;-62
2021/11/10 03:29:53;;;;;;;9.15;7.05;;;;;;;-140.05;100.00;61859.38;5026829;28;20213;-63
2021/11/10 03:32:25;;;;;;;7.75;6.10;;;;;;;-140.05;100.00;61859.38;5021487;28;20656;-62
2021/11/10 03:34:55;;;;;;;9.65;6.47;;;;;;;-140.05;100.00;61859.38;5023977;28;20225;-63
2021/11/10 03:37:31;;;;;;;8.13;6.00;;;;;;;-140.05;100.00;61859.38;5025715;28;20207;-63
2021/11/10 03:40:00;;;;;;;8.23;5.97;;;;;;;-140.05;100.00;61859.38;5011561;28;20448;-63
2021/11/10 03:42:27;;;;;;;9.02;5.47;;;;;;;-140.05;100.00;61859.38;5023409;28;20217;-64
2021/11/10 03:44:54;;;;;;;6.57;5.50;;;;;;;-140.05;100.00;61859.38;5019383;28;20304;-63
2021/11/10 03:47:21;;;;;;;13.30;5.43;;;;;;;-140.05;100.00;61859.38;5022955;28;20509;-63
2021/11/10 03:49:49;;;;;;;6.13;5.20;;;;;;;-140.05;100.00;61859.38;5020053;28;20323;-64
2021/11/10 03:52:18;;;;;;;9.13;5.85;;;;;;;-140.05;100.00;61859.38;5019050;28;20441;-62
2021/11/10 03:54:47;;;;;;;8.38;5.60;;;;;;;-140.05;100.00;61859.38;5014682;28;20234;-63
2021/11/10 03:57:15;;;;;;;8.23;5.97;;;;;;;-140.05;100.00;61859.38;5008561;28;20567;-63
2021/11/10 03:59:43;;;;;;;9.98;6.70;;;;;;;-140.05;100.00;61859.38;5011354;28;20502;-64
2021/11/10 04:02:12;;;;;;;9.73;7.00;;;;;;;-140.05;100.00;61859.38;5012102;28;20209;-63
2021/11/10 04:04:39;;;;;;;10.93;6.82;;;;;;;-140.05;100.00;61859.38;5021392;28;20200;-62
2021/11/10 04:07:07;;;;;;;9.07;6.63;;;;;;;-140.05;100.00;61859.38;5021670;28;20589;-62
2021/11/10 04:09:35;;;;;;;9.88;6.75;;;;;;;-140.05;100.00;61859.38;5041496;28;20444;-61
2021/11/10 04:12:06;;;;;;;9.52;6.55;;;;;;;-140.05;100.00;61859.38;5022827;28;20197;-63
2021/11/10 04:14:37;;;;;;;8.40;6.55;;;;;;;-140.05;100.00;61859.38;5017833;28;20308;-62
2021/11/10 04:17:07;;;;;;;8.15;6.45;;;;;;;-140.05;100.00;61859.38;5022628;28;20296;-62
2021/11/10 04:19:36;;;;;;;7.82;5.63;;;;;;;-140.05;100.00;61859.38;5015397;28;20201;-61
2021/11/10 04:22:05;;;;;;;7.60;6.05;;;;;;;-140.05;100.00;61859.38;5010183;28;20746;-61
2021/11/10 04:24:33;;;;;;;7.47;6.27;;;;;;;-140.05;100.00;61859.38;5009490;28;20272;-62
2021/11/10 04:27:00;;;;;;;8.98;6.15;;;;;;;-140.05;100.00;61859.38;5017277;28;20456;-62
2021/11/10 04:29:27;;;;;;;9.18;6.32;;;;;;;-140.05;100.00;61859.38;5021150;28;20193;-62
2021/11/10 04:31:54;;;;;;;10.23;6.30;;;;;;;-140.05;100.00;61859.38;5020773;28;20223;-62
2021/11/10 04:34:23;;;;;;;7.93;6.28;;;;;;;-140.05;100.00;61859.38;5021027;28;20608;-63
2021/11/10 04:36:53;;;;;;;9.13;6.53;;;;;;;-140.05;100.00;61859.38;5014520;28;20615;-63
2021/11/10 04:39:27;;;;;;;10.87;8.10;;;;;;;-140.05;100.00;61859.38;5012138;28;20693;-62
2021/11/10 04:41:55;;;;;;;11.10;7.50;;;;;;;-140.05;100.00;61859.38;5007976;28;20506;-64
2021/11/10 04:44:24;;;;;;;12.10;8.15;;;;;;;-140.05;100.00;61859.38;5010605;28;20444;-62
2021/11/10 04:46:53;;;;;;;15.45;9.07;;;;;;;-140.05;100.00;61859.38;5005707;28;20313;-61
2021/11/10 04:49:20;;;;;;;16.33;10.63;;;;;;;-140.05;100.00;61859.38;5018466;28;20201;-62
2021/11/10 04:51:47;;;;;;;17.58;10.60;;;;;;;-140.05;100.00;61859.38;5006527;28;20476;-63
2021/11/10 04:54:19;;;;;;;19.10;10.77;;;;;;;-140.05;100.00;61859.38;5007628;28;20240;-63
2021/11/10 04:56:49;;;;;;;18.37;11.57;;;;;;;-140.05;100.00;61859.38;4998135;28;21321;-62
2021/11/10 04:59:16;;;;;;;22.00;12.65;;;;;;;-140.05;100.00;61859.38;5026940;28;20448;-63
2021/11/10 05:01:51;;;;;;;19.25;11.10;;;;;;;-140.05;100.00;61859.38;5015058;28;20205;-62
2021/11/10 05:04:18;;;;;;;16.60;10.27;;;;;;;-140.05;100.00;61859.38;5044440;28;20197;-66
2021/11/10 05:06:45;;;;;;;12.10;8.00;;;;;;;-140.05;100.00;61859.38;5015647;28;20208;-67
2021/11/10 05:09:12;;;;;;;13.17;7.87;;;;;;;-140.05;100.00;61859.38;5010732;28;20489;-64
2021/11/10 05:11:39;;;;;;;9.98;7.53;;;;;;;-140.05;100.00;61859.38;5012418;28;20509;-67
2021/11/10 05:14:06;;;;;;;11.15;7.50;;;;;;;-140.05;100.00;61859.38;5024114;28;20196;-69
2021/11/10 05:16:34;;;;;;;11.20;6.82;;;;;;;-140.05;100.00;61859.38;5034578;28;20308;-67
2021/11/10 05:19:07;;;;;;;12.00;7.03;;;;;;;-140.05;100.00;61859.38;5023218;28;20286;-67
2021/11/10 05:21:36;;;;;;;33.07;21.40;;;;;;;-140.05;100.00;61859.38;5015565;28;20197;-68
2021/11/10 05:24:03;;;;;;;11.27;8.10;;;;;;;-140.05;100.00;61859.38;5014418;28;20463;-68
2021/11/10 05:26:31;;;;;;;18.20;12.93;;;;;;;-140.05;100.00;61859.38;5010080;28;20538;-66
2021/11/10 05:28:58;;;;;;;11.50;8.57;;;;;;;-140.05;100.00;61859.38;5010379;28;20218;-67
2021/11/10 05:31:25;;;;;;;12.85;7.25;;;;;;;-140.05;100.00;61859.38;5010089;28;20223;-66
2021/11/10 05:33:52;;;;;;;10.65;7.47;;;;;;;-140.05;100.00;61859.38;5010278;28;20198;-64
2021/11/10 05:36:19;;;;;;;9.65;7.45;;;;;;;-140.05;100.00;61859.38;5011190;28;20770;-63
2021/11/10 05:38:46;;;;;;;12.93;7.80;;;;;;;-140.05;100.00;61859.38;5018968;28;20213;-65
2021/11/10 05:41:13;;;;;;;15.35;7.90;;;;;;;-140.05;100.00;61859.38;5019961;28;20447;-65
2021/11/10 05:43:41;;;;;;;14.80;9.15;;;;;;;-140.05;100.00;61859.38;5017933;28;20688;-64
2021/11/10 05:46:08;;;;;;;15.10;8.27;;;;;;;-140.05;100.00;61859.38;5012723;28;20202;-65
2021/11/10 05:48:36;;;;;;;19.97;11.20;;;;;;;-140.05;100.00;61859.38;5025090;28;20231;-65
2021/11/10 05:51:04;;;;;;;52.57;30.93;;;;;;;-140.05;100.00;61859.38;5029023;28;20440;-65
2021/11/10 05:53:32;;;;;;;103.03;62.25;;;;;;;-140.05;100.00;61859.38;5028019;28;20439;-67
2021/11/10 05:56:00;;;;;;;19.55;10.18;;;;;;;-140.05;100.00;61859.38;5015033;28;20739;-64
2021/11/10 05:58:29;;;;;;;20.55;12.00;;;;;;;-140.05;100.00;61859.38;5028539;28;20189;-66
2021/11/10 06:00:57;;;;;;;24.83;13.05;;;;;;;-140.05;100.00;61859.38;5024138;28;20351;-67
2021/11/10 06:03:27;;;;;;;22.38;12.48;;;;;;;-140.05;100.00;61859.38;5025711;28;20204;-64
2021/11/10 06:05:54;;;;;;;24.17;13.37;;;;;;;-140.05;100.00;61859.38;5024044;28;20198;-63
2021/11/10 06:08:20;;;;;;;28.90;13.70;;;;;;;-140.05;100.00;61859.38;5025237;28;20472;-63
2021/11/10 06:11:06;;;;;;;17.43;11.37;;;;;;;-140.05;100.00;61859.38;5023729;28;20933;-65
2021/11/10 06:13:33;;;;;;;17.20;10.67;;;;;;;-140.05;100.00;61859.38;5029972;28;20459;-64
2021/11/10 06:16:00;;;;;;;11.50;7.80;;;;;;;-140.05;100.00;61859.38;5027369;28;20508;-64
2021/11/10 06:18:29;;;;;;;10.17;6.50;;;;;;;-140.05;100.00;61859.38;5030352;28;20630;-65
2021/11/10 06:20:57;;;;;;;9.83;6.17;;;;;;;-140.05;100.00;61859.38;5027561;28;20539;-64
2021/11/10 06:23:24;;;;;;;12.23;6.53;;;;;;;-140.05;100.00;61859.38;5029857;28;20535;-64
2021/11/10 06:25:51;;;;;;;12.97;6.73;;;;;;;-140.05;100.00;61859.38;5028941;28;20451;-63
2021/11/10 06:28:18;;;;;;;9.73;7.30;;;;;;;-140.05;100.00;61859.38;5015738;28;20448;-63
2021/11/10 06:30:45;;;;;;;8.97;6.67;;;;;;;-140.05;100.00;61859.38;5028900;28;20442;-64
2021/11/10 06:33:12;;;;;;;9.37;7.17;;;;;;;-140.05;100.00;61859.38;5025917;28;20440;-64
2021/11/10 06:35:39;;;;;;;12.00;7.97;;;;;;;-140.05;100.00;61859.38;5029511;28;20486;-64
2021/11/10 06:38:06;;;;;;;10.63;7.87;;;;;;;-140.05;100.00;61859.38;5027016;28;20454;-64
2021/11/10 06:40:33;;;;;;;13.60;8.90;;;;;;;-140.05;100.00;61859.38;5029956;28;20541;-64
2021/11/10 06:43:00;;;;;;;14.43;8.60;;;;;;;-140.05;100.00;61859.38;5026410;28;20454;-64
2021/11/10 06:45:27;;;;;;;12.07;7.33;;;;;;;-140.05;100.00;61859.38;5028789;28;20444;-64
2021/11/10 06:47:54;;;;;;;13.53;7.40;;;;;;;-140.05;100.00;61859.38;5029068;28;20459;-63
2021/11/10 06:50:21;;;;;;;11.33;7.13;;;;;;;-140.05;100.00;61859.38;5025988;28;20444;-64
2021/11/10 06:52:48;;;;;;;10.90;7.17;;;;;;;-140.05;100.00;61859.38;5027636;28;20443;-65
2021/11/10 06:55:16;;;;;;;11.70;6.87;;;;;;;-140.05;100.00;61859.38;5026584;28;20448;-66
2021/11/10 06:57:42;;;;;;;9.20;6.30;;;;;;;-140.05;100.00;61859.38;5029040;28;20459;-64
2021/11/10 07:00:14;;;;;;;7.57;5.93;;;;;;;-140.05;100.00;61859.38;5028735;28;20801;-64
2021/11/10 07:02:42;;;;;;;7.37;5.70;;;;;;;-140.05;100.00;61859.38;5027065;28;20965;-62
2021/11/10 07:05:10;;;;;;;10.50;6.67;;;;;;;-140.05;100.00;61859.38;5030550;28;20431;-62
2021/11/10 07:07:36;;;;;;;8.33;6.23;;;;;;;-140.05;100.00;61859.38;5021325;28;20856;-62
2021/11/10 07:10:04;;;;;;;11.80;6.40;;;;;;;-140.05;100.00;61859.38;5024184;28;20447;-62
2021/11/10 07:12:32;;;;;;;9.20;5.83;;;;;;;-140.05;100.00;61859.38;5027529;28;20444;-63
2021/11/10 07:14:59;;;;;;;10.63;5.97;;;;;;;-140.05;100.00;61859.38;5027385;28;20454;-63
2021/11/10 07:17:26;;;;;;;6.93;5.00;;;;;;;-140.05;100.00;61859.38;5029224;28;20479;-62
2021/11/10 07:19:53;;;;;;;5.70;4.90;;;;;;;-140.05;100.00;61859.38;5027503;28;20447;-63
2021/11/10 07:22:21;;;;;;;7.67;5.77;;;;;;;-140.05;100.00;61859.38;5026614;28;20435;-63
2021/11/10 07:24:47;;;;;;;7.57;5.77;;;;;;;-140.05;100.00;61859.38;5022118;28;20447;-63
2021/11/10 07:27:14;;;;;;;7.50;5.40;;;;;;;-140.05;100.00;61859.38;5017638;28;20439;-63
2021/11/10 07:29:42;;;;;;;7.37;5.40;;;;;;;-140.05;100.00;61859.38;5020378;28;20795;-63
2021/11/10 07:32:09;;;;;;;6.23;4.90;;;;;;;-140.05;100.00;61859.38;5029889;28;20443;-63
2021/11/10 07:34:36;;;;;;;5.90;4.57;;;;;;;-140.05;100.00;61859.38;5029097;28;20526;-63
2021/11/10 07:37:03;;;;;;;6.77;4.70;;;;;;;-140.05;100.00;61859.38;5024359;28;20483;-63
2021/11/10 07:39:31;;;;;;;5.53;4.60;;;;;;;-140.05;100.00;61859.38;5025595;28;20455;-61
2021/11/10 07:42:00;;;;;;;7.77;5.13;;;;;;;-140.05;100.00;61859.38;5024672;28;20452;-63
2021/11/10 07:44:27;;;;;;;8.13;4.60;;;;;;;-140.05;100.00;61859.38;5025623;28;20432;-62
2021/11/10 07:47:05;;;;;;;7.13;4.50;;;;;;;-140.05;100.00;61859.38;5027033;28;20869;-63
2021/11/10 07:49:33;;;;;;;8.47;4.70;;;;;;;-140.05;100.00;61859.38;5027528;28;20810;-64
2021/11/10 07:52:00;;;;;;;6.13;5.10;;;;;;;-140.05;100.00;61859.38;5024273;28;20447;-62
2021/11/10 07:54:27;;;;;;;6.33;5.20;;;;;;;-140.05;100.00;61859.38;5016531;28;20454;-62
2021/11/10 07:56:56;;;;;;;7.77;5.10;;;;;;;-140.05;100.00;61859.38;5016790;28;20471;-63
2021/11/10 07:59:23;;;;;;;6.47;4.60;;;;;;;-140.05;100.00;61859.38;5018166;28;20889;-63
2021/11/10 08:01:50;;;;;;;12.00;4.40;;;;;;;-140.05;100.00;61859.38;5024625;28;20431;-62
2021/11/10 08:04:19;;;;;;;5.80;4.17;;;;;;;-140.05;100.00;61859.38;5024284;28;20543;-61
2021/11/10 08:06:46;;;;;;;7.67;4.10;;;;;;;-140.05;100.00;61859.38;5023827;28;20443;-62
2021/11/10 08:09:14;;;;;;;6.60;4.30;;;;;;;-140.05;100.00;61859.38;5025862;28;20970;-62
2021/11/10 08:11:41;;;;;;;9.37;4.67;;;;;;;-140.05;100.00;61859.38;5027688;28;20775;-62
2021/11/10 08:14:08;;;;;;;7.07;4.67;;;;;;;-140.05;100.00;61859.38;5027325;28;20547;-61
2021/11/10 08:16:35;;;;;;;5.60;4.20;;;;;;;-140.05;100.00;61859.38;5028193;28;20471;-63
2021/11/10 08:19:02;;;;;;;9.77;4.27;;;;;;;-140.05;100.00;61859.38;5027847;28;20443;-64
2021/11/10 08:21:29;;;;;;;5.07;4.10;;;;;;;-140.05;100.00;61859.38;5011462;28;20927;-61
2021/11/10 08:23:58;;;;;;;6.83;4.50;;;;;;;-140.05;100.00;61859.38;5025268;28;20471;-61
2021/11/10 08:26:25;;;;;;;5.40;4.23;;;;;;;-140.05;100.00;61859.38;5010143;28;20440;-62
2021/11/10 08:28:52;;;;;;;10.57;4.83;;;;;;;-140.05;100.00;61859.38;5010772;28;20437;-62
2021/11/10 08:31:19;;;;;;;6.83;4.30;;;;;;;-140.05;100.00;61859.38;5010254;28;20444;-62
2021/11/10 08:33:46;;;;;;;6.47;4.20;;;;;;;-140.05;100.00;61859.38;5009811;28;20537;-62
2021/11/10 08:36:13;;;;;;;4.93;4.00;;;;;;;-140.05;100.00;61859.38;5011995;28;20479;-64
2021/11/10 08:38:39;;;;;;;7.33;4.07;;;;;;;-140.05;100.00;61859.38;5010193;28;20532;-61
2021/11/10 08:41:06;;;;;;;4.23;3.43;;;;;;;-140.05;100.00;61859.38;5010666;28;20437;-61
2021/11/10 08:43:33;;;;;;;5.37;3.57;;;;;;;-140.05;100.00;61859.38;5010244;28;20958;-61
2021/11/10 08:46:00;;;;;;;5.90;4.30;;;;;;;-140.05;100.00;61859.38;5010712;28;20954;-61
2021/11/10 08:48:29;;;;;;;6.00;3.93;;;;;;;-140.05;100.00;61859.38;5024800;28;20443;-62
2021/11/10 08:50:57;;;;;;;5.47;3.70;;;;;;;-140.05;100.00;61859.38;5029924;28;20458;-62
2021/11/10 08:53:24;;;;;;;5.03;3.60;;;;;;;-140.05;100.00;61859.38;5015241;28;20478;-63
2021/11/10 08:55:54;;;;;;;4.30;3.70;;;;;;;-140.05;100.00;61859.38;5012264;28;20537;-62
2021/11/10 08:58:23;;;;;;;4.10;3.67;;;;;;;-140.05;100.00;61859.38;5014634;28;20454;-63
2021/11/10 09:00:52;;;;;;;6.73;4.10;;;;;;;-140.05;100.00;61859.38;5003144;28;20484;-62
2021/11/10 09:03:21;;;;;;;4.07;3.20;;;;;;;-140.05;100.00;61859.38;5011020;28;20445;-63
2021/11/10 09:05:50;;;;;;;5.10;3.57;;;;;;;-140.05;100.00;61859.38;5017004;28;20456;-64
2021/11/10 09:08:19;;;;;;;6.13;3.07;;;;;;;-140.05;100.00;61859.38;5027295;28;20464;-63
2021/11/10 09:10:46;;;;;;;8.37;3.57;;;;;;;-140.05;100.00;61859.38;5027879;28;20445;-64
2021/11/10 09:13:13;;;;;;;5.07;3.70;;;;;;;-140.05;100.00;61859.38;5027873;28;20501;-62
2021/11/10 09:15:42;;;;;;;4.90;3.40;;;;;;;-140.05;100.00;61859.38;5026946;28;20774;-61
2021/11/10 09:18:09;;;;;;;4.93;4.20;;;;;;;-140.05;100.00;61859.38;5027589;28;20455;-62
2021/11/10 09:20:38;;;;;;;4.50;3.13;;;;;;;-140.05;100.00;61859.38;5027973;28;20444;-63
2021/11/10 09:23:07;;;;;;;5.03;3.30;;;;;;;-140.05;100.00;61859.38;5014271;28;20450;-64
2021/11/10 09:25:37;;;;;;;3.93;3.23;;;;;;;-140.05;100.00;61859.38;5017174;28;21231;-61
2021/11/10 09:28:10;;;;;;;3.90;3.10;;;;;;;-140.05;100.00;61859.38;5021728;28;20440;-63
2021/11/10 09:30:39;;;;;;;4.67;3.33;;;;;;;-140.05;100.00;61859.38;5020457;28;20446;-63
2021/11/10 09:33:08;;;;;;;5.93;3.47;;;;;;;-140.05;100.00;61859.38;5025635;28;20447;-64
2021/11/10 09:35:36;;;;;;;3.57;3.07;;;;;;;-140.05;100.00;61859.38;5027934;28;20448;-63
2021/11/10 09:38:05;;;;;;;5.40;3.30;;;;;;;-140.05;100.00;61859.38;5026165;28;20491;-65
2021/11/10 09:40:35;;;;;;;3.83;3.43;;;;;;;-140.05;100.00;61859.38;5029980;28;20454;-65
2021/11/10 09:43:03;;;;;;;3.97;3.37;;;;;;;-140.05;100.00;61859.38;5025850;28;20449;-62
2021/11/10 09:45:34;;;;;;;4.83;3.50;;;;;;;-140.05;100.00;61859.38;5020315;28;20441;-63
2021/11/10 09:48:04;;;;;;;3.30;2.97;;;;;;;-140.05;100.00;61859.38;5023016;28;20997;-64
2021/11/10 09:50:32;;;;;;;4.63;3.10;;;;;;;-140.05;100.00;61859.38;5028937;28;20448;-64
2021/11/10 09:53:00;;;;;;;3.53;3.10;;;;;;;-140.05;100.00;61859.38;5024071;28;20515;-65
2021/11/10 09:55:30;;;;;;;6.93;3.83;;;;;;;-140.05;100.00;61859.38;5023544;28;20989;-61
2021/11/10 09:57:59;;;;;;;4.07;3.00;;;;;;;-140.05;100.00;61859.38;5023554;28;21039;-63
2021/11/10 10:00:33;;;;;;;7.60;3.90;;;;;;;-140.05;100.00;61859.38;5023573;28;20443;-62
2021/11/10 10:03:03;;;;;;;5.07;3.40;;;;;;;-140.05;100.00;61859.38;5018694;28;20448;-64
2021/11/10 10:05:32;;;;;;;4.57;3.30;;;;;;;-140.05;100.00;61859.38;5019601;28;20454;-64
2021/11/10 10:08:05;;;;;;;4.00;3.60;;;;;;;-140.05;100.00;61859.38;5018790;28;20512;-65
2021/11/10 10:10:34;;;;;;;3.50;3.20;;;;;;;-140.05;100.00;61859.38;5019732;28;20521;-62
2021/11/10 10:13:03;;;;;;;3.53;3.13;;;;;;;-140.05;100.00;61859.38;5022326;28;20540;-65
2021/11/10 10:15:33;;;;;;;4.40;3.53;;;;;;;-140.05;100.00;61859.38;5024744;28;20483;-62
2021/11/10 10:18:01;;;;;;;5.00;3.27;;;;;;;-140.05;100.00;61859.38;5023462;28;20510;-62
2021/11/10 10:20:36;;;;;;;5.47;3.10;;;;;;;-140.05;100.00;61859.38;5025789;28;20447;-63
2021/11/10 10:23:11;;;;;;;6.07;3.73;;;;;;;-140.05;100.00;61859.38;5023563;28;20493;-66
2021/11/10 10:25:54;;;;;;;4.00;3.00;;;;;;;-140.05;100.00;61859.38;5015089;28;20501;-65
2021/11/10 10:28:35;;;;;;;6.03;3.60;;;;;;;-140.05;100.00;61859.38;5024360;28;20804;-65
2021/11/10 10:31:11;;;;;;;4.20;3.43;;;;;;;-140.05;100.00;61859.38;5023160;28;20452;-65
2021/11/10 10:33:41;;;;;;;4.43;3.83;;;;;;;-140.05;100.00;61859.38;5025741;28;20443;-65
2021/11/10 10:36:17;;;;;;;3.87;3.47;;;;;;;-140.05;100.00;61859.38;5026109;28;20447;-63
2021/11/10 10:38:48;;;;;;;3.50;3.20;;;;;;;-140.05;100.00;61859.38;5019480;28;20505;-66
2021/11/10 10:41:21;;;;;;;3.50;3.20;;;;;;;-140.05;100.00;61859.38;5013603;28;20440;-62
2021/11/10 10:43:54;;;;;;;4.07;3.53;;;;;;;-140.05;100.00;61859.38;5018385;28;20517;-63
2021/11/10 10:46:28;;;;;;;3.90;3.50;;;;;;;-140.05;100.00;61859.38;5013196;28;20451;-64
2021/11/10 10:49:24;;;;;;;5.83;3.47;;;;;;;-140.05;100.00;61859.38;5024750;28;20503;-64
2021/11/10 10:52:07;;;;;;;7.83;3.90;;;;;;;-140.05;100.00;61859.38;5017502;28;20444;-64
2021/11/10 10:54:34;;;;;;;3.80;3.40;;;;;;;-140.05;100.00;61859.38;5001632;28;20452;-65
2021/11/10 10:57:02;;;;;;;4.87;3.10;;;;;;;-140.05;100.00;61859.38;5013048;28;20510;-63
2021/11/10 10:59:31;;;;;;;4.20;3.20;;;;;;;-140.05;100.00;61859.38;5022212;28;20945;-64
2021/11/10 11:02:03;;;;;;;4.20;3.23;;;;;;;-140.05;100.00;61859.38;5014061;28;20455;-61
2021/11/10 11:04:32;;;;;;;14.10;3.30;;;;;;;-140.05;100.00;61859.38;5009104;28;20887;-64
2021/11/10 11:07:06;;;;;;;4.00;3.43;;;;;;;-140.05;100.00;61859.38;5030799;28;20838;-63
2021/11/10 11:09:40;;;;;;;4.43;3.37;;;;;;;-140.05;100.00;61859.38;5022594;28;20441;-62
2021/11/10 11:12:31;;;;;;;4.17;3.67;;;;;;;-140.05;100.00;61859.38;5016655;28;21140;-66